createdAt,value
2023-04-21T00:00:38.272Z,85.26
2023-04-21T00:03:21.311Z,85.98
2023-04-21T00:05:51.067Z,86.25
2023-04-21T00:08:20.081Z,86.46
2023-04-21T00:10:48.571Z,86.19
2023-04-21T00:13:17.151Z,87.05
2023-04-21T00:15:45.872Z,85.94
2023-04-21T00:18:14.723Z,85.25
2023-04-21T00:20:44.133Z,86.44
2023-04-21T00:23:12.511Z,86.65
2023-04-21T00:25:41.085Z,87.15
2023-04-21T00:28:09.678Z,88.16
2023-04-21T00:30:39.182Z,87.49
2023-04-21T00:33:07.894Z,87.83
2023-04-21T00:35:36.267Z,87.59
2023-04-21T00:38:05.028Z,87.10
2023-04-21T00:40:33.517Z,87.12
2023-04-21T00:43:02.096Z,86.91
2023-04-21T00:45:30.776Z,86.71
2023-04-21T00:47:59.836Z,86.12
2023-04-21T00:50:29.099Z,86.35
2023-04-21T00:52:59.608Z,85.43
2023-04-21T00:55:29.230Z,84.96
2023-04-21T00:57:58.516Z,85.63
2023-04-21T01:00:30.053Z,85.22
2023-04-21T01:03:01.787Z,84.18
2023-04-21T01:05:32.048Z,83.42
2023-04-21T01:08:02.388Z,84.13
2023-04-21T01:10:30.754Z,84.06
2023-04-21T01:12:59.230Z,84.70
2023-04-21T01:15:31.145Z,84.17
2023-04-21T01:18:00.344Z,84.14
2023-04-21T01:20:30.194Z,83.14
2023-04-21T01:22:59.735Z,83.70
2023-04-21T01:25:28.824Z,83.57
2023-04-21T01:27:57.621Z,83.21
2023-04-21T01:30:26.374Z,83.61
2023-04-21T01:32:55.506Z,84.29
2023-04-21T01:35:24.692Z,83.87
2023-04-21T01:37:53.397Z,83.65
2023-04-21T01:40:22.046Z,84.16
2023-04-21T01:42:51.665Z,83.67
2023-04-21T01:45:20.451Z,83.77
2023-04-21T01:47:49.536Z,83.95
2023-04-21T01:50:18.519Z,83.33
2023-04-21T01:52:47.738Z,83.49
2023-04-21T01:55:17.053Z,83.43
2023-04-21T01:57:45.844Z,83.66
2023-04-21T02:00:15.322Z,84.64
2023-04-21T02:02:45.077Z,84.09
2023-04-21T02:05:15.674Z,84.56
2023-04-21T02:07:44.245Z,85.15
2023-04-21T02:10:13.779Z,85.67
2023-04-21T02:12:44.715Z,84.99
2023-04-21T02:15:13.809Z,84.93
2023-04-21T02:17:43.323Z,84.89
2023-04-21T02:20:14.845Z,85.05
2023-04-21T02:22:43.518Z,84.53
2023-04-21T02:25:11.899Z,83.67
2023-04-21T02:27:40.698Z,84.09
2023-04-21T02:30:10.094Z,83.97
2023-04-21T02:32:38.712Z,84.99
2023-04-21T02:35:07.774Z,85.40
2023-04-21T02:37:36.256Z,85.42
2023-04-21T02:40:06.749Z,85.98
2023-04-21T02:42:35.260Z,85.60
2023-04-21T02:45:04.414Z,86.13
2023-04-21T02:47:32.903Z,86.07
2023-04-21T02:50:02.365Z,86.16
2023-04-21T02:56:09.406Z,87.13
2023-04-21T02:58:38.311Z,86.63
2023-04-21T03:01:07.111Z,86.16
2023-04-21T03:03:36.797Z,85.59
2023-04-21T03:06:06.223Z,85.07
2023-04-21T03:08:34.924Z,85.87
2023-04-21T03:11:03.401Z,86.19
2023-04-21T03:13:31.987Z,85.76
2023-04-21T03:16:00.607Z,85.44
2023-04-21T03:18:29.252Z,85.97
2023-04-21T03:21:01.856Z,85.59
2023-04-21T03:27:11.141Z,86.30
2023-04-21T03:29:40.392Z,85.93
2023-04-21T03:32:09.203Z,86.44
2023-04-21T03:34:39.191Z,86.59
2023-04-21T03:37:07.884Z,86.98
2023-04-21T03:39:36.772Z,87.70
2023-04-21T03:42:06.581Z,87.04
2023-04-21T03:44:35.480Z,87.07
2023-04-21T03:47:04.639Z,86.91
2023-04-21T03:49:36.535Z,86.04
2023-04-21T03:52:05.829Z,86.38
2023-04-21T03:54:34.221Z,86.68
2023-04-21T03:57:03.721Z,85.33
2023-04-21T03:59:32.607Z,86.00
2023-04-21T04:02:01.368Z,86.14
2023-04-21T04:04:31.028Z,86.45
2023-04-21T04:07:00.128Z,87.73
2023-04-21T04:09:28.683Z,87.88
2023-04-21T04:11:57.787Z,87.99
2023-04-21T04:14:26.666Z,87.86
2023-04-21T04:16:55.247Z,89.20
2023-04-21T04:19:31.545Z,89.00
2023-04-21T04:22:02.009Z,88.66
2023-04-21T04:24:33.878Z,89.55
2023-04-21T04:27:03.624Z,86.76
2023-04-21T04:29:32.834Z,87.46
2023-04-21T04:32:04.469Z,85.40
2023-04-21T04:34:33.056Z,84.11
2023-04-21T04:37:03.800Z,86.12
2023-04-21T04:39:32.777Z,85.53
2023-04-21T04:42:01.735Z,85.09
2023-04-21T04:44:30.152Z,86.72
2023-04-21T04:46:59.167Z,88.65
2023-04-21T04:49:27.928Z,87.55
2023-04-21T04:51:57.041Z,86.71
2023-04-21T04:54:25.910Z,88.89
2023-04-21T04:56:56.051Z,89.56
2023-04-21T04:59:24.815Z,89.82
2023-04-21T05:01:53.645Z,90.15
2023-04-21T05:04:22.596Z,89.19
2023-04-21T05:06:52.414Z,89.28
2023-04-21T05:09:22.136Z,89.51
2023-04-21T05:11:51.130Z,89.93
2023-04-21T05:14:19.800Z,90.02
2023-04-21T05:16:49.043Z,87.12
2023-04-21T05:19:18.895Z,88.39
2023-04-21T05:21:47.616Z,89.81
2023-04-21T05:24:16.473Z,90.20
2023-04-21T05:26:45.283Z,89.60
2023-04-21T05:29:13.866Z,89.35
2023-04-21T05:31:43.007Z,90.29
2023-04-21T05:34:12.382Z,90.69
2023-04-21T05:36:43.210Z,89.54
2023-04-21T05:39:12.498Z,89.01
2023-04-21T05:41:43.328Z,89.12
2023-04-21T05:44:12.549Z,90.14
2023-04-21T05:46:42.012Z,90.52
2023-04-21T05:49:10.756Z,90.51
2023-04-21T05:51:39.496Z,90.17
2023-04-21T05:54:08.136Z,90.09
2023-04-21T05:56:37.090Z,90.18
2023-04-21T05:59:07.219Z,90.55
2023-04-21T06:01:37.253Z,89.38
2023-04-21T06:04:07.309Z,87.38
2023-04-21T06:06:38.248Z,85.59
2023-04-21T06:09:16.692Z,85.66
2023-04-21T06:11:45.780Z,85.00
2023-04-21T06:14:14.695Z,84.05
2023-04-21T06:16:43.435Z,82.47
2023-04-21T06:19:13.513Z,81.20
2023-04-21T06:21:42.159Z,80.81
2023-04-21T06:24:10.852Z,79.32
2023-04-21T06:26:39.944Z,81.79
2023-04-21T06:29:08.437Z,78.75
2023-04-21T06:31:37.191Z,80.78
2023-04-21T06:34:06.299Z,81.30
2023-04-21T06:36:35.625Z,80.61
2023-04-21T06:39:05.273Z,80.33
2023-04-21T06:41:33.808Z,80.34
2023-04-21T06:44:02.995Z,80.81
2023-04-21T06:46:31.658Z,79.35
2023-04-21T06:49:00.722Z,81.48
2023-04-21T06:51:31.004Z,81.51
2023-04-21T06:57:37.894Z,82.00
2023-04-21T07:00:08.077Z,82.33
2023-04-21T07:02:36.571Z,85.36
2023-04-21T07:05:08.069Z,84.64
2023-04-21T07:07:36.459Z,79.66
2023-04-21T07:10:06.349Z,79.14
2023-04-21T07:12:36.290Z,82.72
2023-04-21T07:15:06.506Z,81.33
2023-04-21T07:17:35.879Z,82.41
2023-04-21T07:20:05.016Z,84.64
2023-04-21T07:22:34.918Z,82.18
2023-04-21T07:25:07.911Z,86.78
2023-04-21T07:27:37.722Z,87.42
2023-04-21T07:30:07.334Z,88.20
2023-04-21T07:32:37.938Z,88.96
2023-04-21T07:35:07.774Z,89.88
2023-04-21T07:37:36.637Z,88.50
2023-04-21T07:40:05.940Z,88.56
2023-04-21T07:42:34.524Z,85.18
2023-04-21T07:45:05.064Z,87.57
2023-04-21T07:47:34.237Z,85.90
2023-04-21T07:50:03.756Z,87.72
2023-04-21T07:52:32.451Z,83.75
2023-04-21T07:55:01.154Z,84.66
2023-04-21T07:57:32.144Z,82.87
2023-04-21T08:00:00.962Z,85.32
2023-04-21T08:02:29.676Z,85.10
2023-04-21T08:04:58.977Z,81.76
2023-04-21T08:07:28.643Z,80.45
2023-04-21T08:09:58.006Z,77.67
2023-04-21T08:12:29.310Z,81.36
2023-04-21T08:14:57.986Z,80.78
2023-04-21T08:17:27.049Z,75.66
2023-04-21T08:19:57.968Z,73.78
2023-04-21T08:22:28.725Z,82.11
2023-04-21T08:24:58.176Z,84.13
2023-04-21T08:27:26.840Z,79.44
2023-04-21T08:29:55.754Z,78.39
2023-04-21T08:32:26.789Z,77.29
2023-04-21T08:34:55.923Z,78.86
2023-04-21T08:37:24.578Z,80.43
2023-04-21T08:39:54.771Z,81.00
2023-04-21T08:42:24.406Z,74.51
2023-04-21T08:44:54.098Z,80.28
2023-04-21T08:47:29.054Z,82.79
2023-04-21T08:49:57.911Z,83.79
2023-04-21T08:52:27.329Z,81.97
2023-04-21T08:54:56.820Z,79.79
2023-04-21T08:57:25.291Z,78.75
2023-04-21T08:59:54.006Z,77.18
2023-04-21T09:02:23.431Z,74.34
2023-04-21T09:04:55.291Z,72.56
2023-04-21T09:07:40.063Z,72.05
2023-04-21T09:10:10.507Z,74.32
2023-04-21T09:12:41.207Z,74.00
2023-04-21T09:15:12.209Z,71.39
2023-04-21T09:17:41.720Z,69.92
2023-04-21T09:20:21.348Z,66.65
2023-04-21T09:22:51.793Z,64.80
2023-04-21T09:25:21.839Z,63.89
2023-04-21T09:27:50.828Z,64.55
2023-04-21T09:30:20.510Z,66.44
2023-04-21T09:32:50.224Z,70.87
2023-04-21T09:35:18.916Z,76.80
2023-04-21T09:37:47.691Z,72.29
2023-04-21T09:40:19.095Z,70.67
2023-04-21T09:42:47.890Z,74.05
2023-04-21T09:45:32.969Z,68.61
2023-04-21T09:48:10.697Z,69.17
2023-04-21T09:51:22.115Z,67.53
2023-04-21T09:53:33.468Z,71.38
2023-04-21T09:56:04.830Z,73.36
2023-04-21T09:58:41.298Z,70.50
2023-04-21T10:01:12.121Z,71.12
2023-04-21T10:03:47.123Z,69.29
2023-04-21T10:06:16.873Z,67.23
2023-04-21T10:08:46.883Z,70.89
2023-04-21T10:11:16.586Z,70.98
2023-04-21T10:13:46.603Z,72.75
2023-04-21T10:16:18.351Z,72.85
2023-04-21T10:18:47.069Z,70.59
2023-04-21T10:21:22.374Z,66.16
2023-04-21T10:23:54.655Z,63.70
2023-04-21T10:26:23.650Z,69.20
2023-04-21T10:29:10.771Z,66.80
2023-04-21T10:31:55.554Z,69.79
2023-04-21T10:34:27.211Z,67.65
2023-04-21T10:36:55.878Z,62.88
2023-04-21T10:39:29.298Z,69.71
2023-04-21T10:41:59.408Z,72.68
2023-04-21T10:44:30.119Z,71.78
2023-04-21T10:47:00.072Z,73.03
2023-04-21T10:49:31.705Z,70.27
2023-04-21T10:52:00.904Z,70.88
2023-04-21T10:54:47.832Z,69.49
2023-04-21T10:57:21.072Z,72.99
2023-04-21T10:59:50.103Z,74.27
2023-04-21T11:02:19.856Z,72.01
2023-04-21T11:04:53.151Z,77.32
2023-04-21T11:07:29.467Z,75.39
2023-04-21T11:10:04.599Z,76.43
2023-04-21T11:12:39.945Z,76.44
2023-04-21T11:15:12.281Z,73.16
2023-04-21T11:17:44.140Z,71.93
2023-04-21T11:20:13.152Z,75.57
2023-04-21T11:22:42.158Z,76.27
2023-04-21T11:25:18.958Z,77.37
2023-04-21T11:28:00.218Z,82.19
2023-04-21T11:30:34.855Z,78.13
2023-04-21T11:33:04.250Z,72.60
2023-04-21T11:35:33.649Z,72.40
2023-04-21T11:38:07.192Z,73.20
2023-04-21T11:40:48.841Z,71.92
2023-04-21T11:43:21.795Z,69.91
2023-04-21T11:45:51.365Z,66.83
2023-04-21T11:48:19.946Z,68.02
2023-04-21T11:50:51.221Z,64.91
2023-04-21T11:53:20.459Z,66.58
2023-04-21T11:55:51.808Z,65.95
2023-04-21T11:58:22.454Z,64.75
2023-04-21T12:00:51.943Z,69.31
2023-04-21T12:03:21.163Z,72.43
2023-04-21T12:05:59.989Z,73.79
2023-04-21T12:08:31.529Z,74.02
2023-04-21T12:11:02.673Z,75.03
2023-04-21T12:13:31.856Z,75.69
2023-04-21T12:16:04.752Z,76.29
2023-04-21T12:18:36.626Z,77.72
2023-04-21T12:21:05.596Z,76.61
2023-04-21T12:23:34.287Z,77.80
2023-04-21T12:26:03.919Z,79.73
2023-04-21T12:28:32.989Z,75.85
2023-04-21T12:31:01.455Z,76.42
2023-04-21T12:33:30.026Z,76.46
2023-04-21T12:36:00.529Z,73.84
2023-04-21T12:38:32.584Z,73.73
2023-04-21T12:41:02.345Z,71.87
2023-04-21T12:43:31.026Z,70.56
2023-04-21T12:46:00.660Z,72.49
2023-04-21T12:48:31.187Z,71.12
2023-04-21T12:51:00.886Z,69.74
2023-04-21T12:53:31.225Z,69.72
2023-04-21T12:56:05.206Z,67.31
2023-04-21T12:58:34.894Z,68.47
2023-04-21T13:01:03.531Z,71.28
2023-04-21T13:03:33.284Z,73.89
2023-04-21T13:06:01.918Z,76.67
2023-04-21T13:08:30.997Z,75.16
2023-04-21T13:11:00.190Z,76.49
2023-04-21T13:13:28.702Z,76.73
2023-04-21T13:15:57.971Z,74.41
2023-04-21T13:18:26.897Z,72.17
2023-04-21T13:20:55.714Z,71.89
2023-04-21T13:23:25.109Z,69.77
2023-04-21T13:25:55.176Z,67.93
2023-04-21T13:28:24.279Z,66.43
2023-04-21T13:30:55.101Z,71.19
2023-04-21T13:33:27.637Z,71.25
2023-04-21T13:35:59.045Z,65.42
2023-04-21T13:38:28.327Z,63.28
2023-04-21T13:41:01.574Z,61.20
2023-04-21T13:43:31.713Z,59.25
2023-04-21T13:46:00.269Z,57.71
2023-04-21T13:48:29.942Z,63.01
2023-04-21T13:50:59.145Z,60.95
2023-04-21T13:53:27.724Z,57.70
2023-04-21T13:55:59.637Z,60.05
2023-04-21T13:58:30.989Z,61.48
2023-04-21T14:01:00.453Z,59.26
2023-04-21T14:03:36.000Z,60.42
2023-04-21T14:06:05.679Z,57.64
2023-04-21T14:08:39.272Z,60.28
2023-04-21T14:11:07.793Z,64.53
2023-04-21T14:13:42.550Z,63.97
2023-04-21T14:16:17.980Z,64.69
2023-04-21T14:18:47.813Z,68.96
2023-04-21T14:21:16.784Z,64.66
2023-04-21T14:23:45.937Z,60.72
2023-04-21T14:26:14.858Z,65.07
2023-04-21T14:28:43.746Z,68.26
2023-04-21T14:31:13.040Z,71.47
2023-04-21T14:33:42.333Z,73.78
2023-04-21T14:36:12.171Z,76.26
2023-04-21T14:38:42.305Z,77.69
2023-04-21T14:41:12.067Z,79.17
2023-04-21T14:43:40.766Z,79.64
2023-04-21T14:46:16.238Z,80.34
2023-04-21T14:48:47.065Z,80.90
2023-04-21T14:51:17.790Z,81.49
2023-04-21T14:53:48.531Z,81.93
2023-04-21T14:56:17.590Z,82.28
2023-04-21T14:58:46.657Z,82.71
2023-04-21T15:01:20.832Z,83.17
2023-04-21T15:03:51.071Z,83.38
2023-04-21T15:06:22.792Z,83.80
2023-04-21T15:08:51.985Z,83.96
2023-04-21T15:11:21.205Z,84.16
2023-04-21T15:13:50.699Z,84.91
2023-04-21T15:16:23.543Z,84.41
2023-04-21T15:18:52.716Z,83.30
2023-04-21T15:21:21.856Z,83.04
2023-04-21T15:23:51.428Z,80.56
2023-04-21T15:26:21.456Z,78.26
2023-04-21T15:28:54.285Z,79.99
2023-04-21T15:31:25.095Z,80.72
2023-04-21T15:33:56.564Z,81.70
2023-04-21T15:36:25.242Z,82.45
2023-04-21T15:38:54.335Z,82.85
2023-04-21T15:41:24.366Z,84.10
2023-04-21T15:44:01.385Z,85.18
2023-04-21T15:46:29.997Z,85.93
2023-04-21T15:48:59.366Z,85.14
2023-04-21T15:51:35.439Z,84.27
2023-04-21T15:54:05.315Z,82.08
2023-04-21T15:56:34.187Z,77.50
2023-04-21T15:59:04.265Z,75.79
2023-04-21T16:01:33.387Z,75.13
2023-04-21T16:04:02.716Z,75.21
2023-04-21T16:06:33.585Z,76.05
2023-04-21T16:09:02.377Z,77.53
2023-04-21T16:11:31.543Z,76.03
2023-04-21T16:14:01.127Z,73.81
2023-04-21T16:16:31.352Z,74.71
2023-04-21T16:19:00.045Z,74.79
2023-04-21T16:21:28.844Z,73.95
2023-04-21T16:23:58.501Z,75.69
2023-04-21T16:26:27.213Z,76.77
2023-04-21T16:28:57.437Z,77.56
2023-04-21T16:31:26.360Z,75.44
2023-04-21T16:34:00.430Z,76.57
2023-04-21T16:36:31.640Z,76.69
2023-04-21T16:39:00.823Z,75.17
2023-04-21T16:41:30.734Z,77.16
2023-04-21T16:43:59.519Z,79.05
2023-04-21T16:46:29.707Z,79.92
2023-04-21T16:48:58.939Z,79.79
2023-04-21T16:51:29.005Z,82.64
2023-04-21T16:53:57.768Z,83.95
2023-04-21T16:56:26.716Z,83.33
2023-04-21T16:58:56.350Z,82.60
2023-04-21T17:01:26.205Z,79.85
2023-04-21T17:03:55.334Z,81.31
2023-04-21T17:06:24.307Z,80.86
2023-04-21T17:09:00.207Z,81.11
2023-04-21T17:11:30.542Z,82.26
2023-04-21T17:14:00.837Z,83.30
2023-04-21T17:16:29.623Z,83.16
2023-04-21T17:18:58.791Z,82.37
2023-04-21T17:21:29.353Z,81.78
2023-04-21T17:23:58.319Z,82.41
2023-04-21T17:26:27.834Z,81.48
2023-04-21T17:28:57.800Z,81.88
2023-04-21T17:31:29.737Z,82.35
2023-04-21T17:33:59.684Z,82.79
2023-04-21T17:36:31.893Z,82.48
2023-04-21T17:39:00.461Z,81.56
2023-04-21T17:41:29.348Z,80.39
2023-04-21T17:44:00.261Z,80.75
2023-04-21T17:46:29.224Z,79.01
2023-04-21T17:48:57.874Z,79.67
2023-04-21T17:51:28.809Z,81.80
2023-04-21T17:53:57.527Z,81.74
2023-04-21T17:56:26.590Z,82.22
2023-04-21T17:58:55.276Z,82.90
2023-04-21T18:01:24.029Z,83.40
2023-04-21T18:03:57.734Z,82.82
2023-04-21T18:06:28.499Z,82.19
2023-04-21T18:08:56.976Z,78.30
2023-04-21T18:11:25.982Z,74.85
2023-04-21T18:13:54.669Z,72.67
2023-04-21T18:20:15.285Z,69.83
2023-04-21T18:22:44.583Z,69.04
2023-04-21T18:25:13.714Z,68.47
2023-04-21T18:27:42.367Z,68.33
2023-04-21T18:30:11.350Z,68.39
2023-04-21T18:32:41.748Z,70.08
2023-04-21T18:35:10.484Z,73.68
2023-04-21T18:37:39.046Z,77.18
2023-04-21T18:40:08.455Z,77.57
2023-04-21T18:42:36.938Z,77.39
2023-04-21T18:45:06.159Z,77.47
2023-04-21T18:47:35.444Z,76.66
2023-04-21T18:50:05.174Z,77.52
2023-04-21T18:52:33.740Z,77.87
2023-04-21T18:55:02.306Z,75.51
2023-04-21T18:57:31.026Z,75.51
2023-04-21T19:00:00.455Z,75.96
2023-04-21T19:02:30.232Z,77.03
2023-04-21T19:04:59.203Z,77.87
2023-04-21T19:07:28.243Z,77.49
2023-04-21T19:09:56.986Z,77.65
2023-04-21T19:12:26.357Z,76.64
2023-04-21T19:14:54.787Z,76.47
2023-04-21T19:17:23.508Z,75.53
2023-04-21T19:19:52.196Z,74.31
2023-04-21T19:22:21.971Z,76.05
2023-04-21T19:24:51.674Z,75.12
2023-04-21T19:27:20.231Z,74.41
2023-04-21T19:29:49.357Z,73.89
2023-04-21T19:32:17.813Z,75.08
2023-04-21T19:34:46.722Z,75.57
2023-04-21T19:37:16.536Z,73.60
2023-04-21T19:39:45.896Z,73.03
2023-04-21T19:42:14.515Z,73.40
2023-04-21T19:44:43.309Z,75.22
2023-04-21T19:47:11.716Z,75.37
2023-04-21T19:49:40.685Z,74.55
2023-04-21T19:52:09.451Z,74.19
2023-04-21T19:54:38.307Z,74.13
2023-04-21T19:57:07.505Z,75.11
2023-04-21T19:59:36.674Z,77.10
2023-04-21T20:02:05.607Z,77.50
2023-04-21T20:04:36.048Z,77.28
2023-04-21T20:07:05.123Z,77.90
2023-04-21T20:09:33.557Z,76.62
2023-04-21T20:12:02.445Z,75.89
2023-04-21T20:14:31.629Z,74.97
2023-04-21T20:17:00.119Z,76.36
2023-04-21T20:19:31.244Z,76.29
2023-04-21T20:22:00.037Z,75.03
2023-04-21T20:24:29.137Z,76.02
2023-04-21T20:26:57.945Z,75.71
2023-04-21T20:29:27.454Z,75.37
2023-04-21T20:31:58.035Z,75.81
2023-04-21T20:34:27.057Z,75.43
2023-04-21T20:36:55.975Z,76.67
2023-04-21T20:39:25.766Z,76.72
2023-04-21T20:42:08.912Z,75.95
2023-04-21T20:44:45.451Z,77.61
2023-04-21T20:47:14.617Z,78.28
2023-04-21T20:49:44.025Z,77.78
2023-04-21T20:52:12.560Z,76.62
2023-04-21T20:54:41.115Z,77.20
2023-04-21T20:57:10.913Z,76.61
2023-04-21T20:59:39.844Z,76.30
2023-04-21T21:02:08.682Z,74.49
2023-04-21T21:04:37.581Z,75.21
2023-04-21T21:07:06.835Z,75.58
2023-04-21T21:09:35.924Z,75.66
2023-04-21T21:12:05.082Z,74.64
2023-04-21T21:14:33.566Z,76.26
2023-04-21T21:17:03.136Z,78.98
2023-04-21T21:19:31.854Z,78.66
2023-04-21T21:22:00.441Z,74.75
2023-04-21T21:24:29.119Z,75.01
2023-04-21T21:26:58.632Z,73.64
2023-04-21T21:29:28.549Z,72.92
2023-04-21T21:31:57.070Z,75.95
2023-04-21T21:34:25.914Z,76.72
2023-04-21T21:36:54.553Z,78.41
2023-04-21T21:39:23.603Z,79.52
2023-04-21T21:41:52.278Z,79.37
2023-04-21T21:44:21.682Z,76.45
2023-04-21T21:46:51.855Z,75.60
2023-04-21T21:49:20.696Z,75.39
2023-04-21T21:51:49.067Z,75.28
2023-04-21T21:54:17.858Z,74.81
2023-04-21T21:56:47.366Z,74.45
2023-04-21T21:59:15.872Z,73.35
2023-04-21T22:01:44.686Z,74.93
2023-04-21T22:04:14.214Z,76.05
2023-04-21T22:06:43.247Z,77.07
2023-04-21T22:09:12.947Z,76.71
2023-04-21T22:11:43.898Z,77.76
2023-04-21T22:14:22.845Z,77.80
2023-04-21T22:16:53.352Z,78.15
2023-04-21T22:19:23.064Z,78.52
2023-04-21T22:21:52.360Z,78.10
2023-04-21T22:24:21.360Z,77.92
2023-04-21T22:26:50.016Z,77.04
2023-04-21T22:29:18.774Z,77.76
2023-04-21T22:31:48.270Z,78.46
2023-04-21T22:34:18.953Z,78.46
2023-04-21T22:36:47.632Z,77.72
2023-04-21T22:39:17.342Z,78.54
2023-04-21T22:41:46.230Z,78.18
2023-04-21T22:44:14.817Z,78.25
2023-04-21T22:46:43.469Z,78.17
2023-04-21T22:49:12.404Z,78.66
2023-04-21T22:51:40.941Z,78.75
2023-04-21T22:54:10.496Z,78.03
2023-04-21T22:56:38.954Z,76.93
2023-04-21T22:59:07.654Z,78.47
2023-04-21T23:01:36.031Z,75.56
2023-04-21T23:04:05.119Z,78.31
2023-04-21T23:06:34.346Z,80.29
2023-04-21T23:09:03.002Z,78.81
2023-04-21T23:11:31.797Z,80.93
2023-04-21T23:14:00.325Z,81.32
2023-04-21T23:16:28.995Z,81.09
2023-04-21T23:18:57.647Z,80.47
2023-04-21T23:21:27.552Z,81.95
2023-04-21T23:23:56.247Z,82.54
2023-04-21T23:26:25.050Z,83.01
2023-04-21T23:28:53.620Z,83.64
2023-04-21T23:31:22.422Z,83.86
2023-04-21T23:33:51.008Z,83.24
2023-04-21T23:36:19.782Z,82.83
2023-04-21T23:38:48.300Z,83.33
2023-04-21T23:41:17.160Z,83.72
2023-04-21T23:43:45.730Z,84.32
2023-04-21T23:46:15.302Z,83.35
2023-04-21T23:48:44.143Z,84.53
2023-04-21T23:51:13.199Z,84.50
2023-04-21T23:53:41.902Z,84.34
2023-04-21T23:56:10.594Z,83.86
2023-04-21T23:58:39.387Z,83.75
